Time;durP1;ratioP1;P1;durP2;ratioP2;P2;SDS_P1;SDS_P2;PMS_P1;PMS_P2;Temp;Humidity;BMP_temperature;BMP_pressure;BME280_temperature;BME280_humidity;BME280_pressure;Samples;Min_cycle;Max_cycle;Signal;HPM_P1;HPM_P2
2022/08/16 00:00:48;;;;;;;;;41.33;34.33;;;;;22.75;57.96;100356.16;5097979;27;45284;-55
2022/08/16 00:03:13;;;;;;;;;35.67;31.00;;;;;22.87;57.84;100380.56;5097748;27;45414;-55
2022/08/16 00:05:38;;;;;;;;;38.33;32.00;;;;;22.82;58.08;100373.16;5097816;27;45336;-54
2022/08/16 00:08:04;;;;;;;;;34.00;28.33;;;;;22.82;58.10;100370.44;5098180;27;45310;-54
2022/08/16 00:10:32;;;;;;;;;36.00;31.33;;;;;22.82;58.13;100378.56;5097998;27;45394;-54
2022/08/16 00:12:59;;;;;;;;;36.00;31.67;;;;;22.82;57.70;100380.47;5097515;27;46526;-54
2022/08/16 00:15:46;;;;;;;;;32.33;30.33;;;;;22.80;57.90;100386.13;5079171;27;45338;-54
2022/08/16 00:18:13;;;;;;;;;39.33;32.00;;;;;22.78;58.13;100384.72;5097898;27;45543;-54
2022/08/16 00:20:41;;;;;;;;;38.33;33.00;;;;;22.74;57.95;100389.78;5097905;27;45330;-54
2022/08/16 00:23:06;;;;;;;;;34.00;29.33;;;;;22.74;58.13;100392.47;5097451;27;46581;-58
2022/08/16 00:25:32;;;;;;;;;36.00;32.67;;;;;22.75;57.88;100382.47;5097479;27;45386;-55
2022/08/16 00:27:57;;;;;;;;;34.67;30.67;;;;;22.66;57.72;100376.56;5097837;27;45441;-53
2022/08/16 00:30:23;;;;;;;;;32.00;30.00;;;;;22.76;57.60;100394.97;5097980;27;45215;-54
2022/08/16 00:32:53;;;;;;;;;34.33;29.00;;;;;22.77;58.00;100391.19;5097455;27;46077;-53
2022/08/16 00:35:28;;;;;;;;;35.67;33.00;;;;;22.77;57.96;100399.34;5097267;27;45517;-54
2022/08/16 00:37:55;;;;;;;;;36.33;31.33;;;;;22.78;57.94;100399.09;5097297;27;45378;-54
2022/08/16 00:40:31;;;;;;;;;34.67;32.00;;;;;22.76;57.52;100395.81;5097035;27;45594;-55
2022/08/16 00:42:57;;;;;;;;;35.67;31.00;;;;;22.75;57.93;100390.59;5097267;27;46221;-53
2022/08/16 00:45:52;;;;;;;;;34.33;30.33;;;;;22.75;57.82;100396.03;5099022;27;45480;-54
2022/08/16 00:48:18;;;;;;;;;39.33;32.33;;;;;22.67;58.18;100378.25;5101031;27;45342;-54
2022/08/16 00:50:44;;;;;;;;;37.33;30.33;;;;;22.71;57.89;100387.53;5101140;27;45231;-55
2022/08/16 00:53:12;;;;;;;;;38.00;32.00;;;;;22.72;58.42;100396.50;5100677;27;47456;-55
2022/08/16 00:55:48;;;;;;;;;33.67;31.00;;;;;22.61;58.45;100371.84;5100941;27;45512;-54
2022/08/16 00:58:15;;;;;;;;;37.33;33.33;;;;;22.74;58.17;100386.25;5082549;27;45317;-54
2022/08/16 01:00:41;;;;;;;;;36.33;31.00;;;;;22.73;58.31;100384.59;5100912;27;45452;-56
2022/08/16 01:03:11;;;;;;;;;40.00;33.67;;;;;22.72;57.99;100377.53;5100757;27;47283;-52
2022/08/16 01:05:37;;;;;;;;;38.67;30.33;;;;;22.69;58.21;100373.38;5100536;27;46652;-54
2022/08/16 01:08:04;;;;;;;;;35.67;33.67;;;;;22.72;58.52;100372.94;5100792;27;45386;-54
2022/08/16 01:10:32;;;;;;;;;41.33;32.33;;;;;22.70;58.37;100368.78;5101028;27;45251;-54
2022/08/16 01:12:59;;;;;;;;;32.00;31.00;;;;;22.71;58.33;100367.72;5100577;27;45983;-54
2022/08/16 01:15:26;;;;;;;;;33.33;29.67;;;;;22.67;58.70;100367.41;5100711;27;45240;-54
2022/08/16 01:17:52;;;;;;;;;36.67;32.33;;;;;22.70;58.70;100366.06;5100504;27;45374;-53
2022/08/16 01:20:22;;;;;;;;;38.00;31.00;;;;;22.70;58.70;100363.38;5100602;27;45473;-54
2022/08/16 01:23:06;;;;;;;;;37.00;32.33;;;;;22.67;58.42;100356.56;5100471;27;45401;-54
2022/08/16 01:25:37;;;;;;;;;35.00;30.33;;;;;22.73;57.92;100363.72;5100636;27;45242;-53
2022/08/16 01:28:08;;;;;;;;;43.00;34.00;;;;;22.68;58.15;100363.63;5100274;27;45374;-53
2022/08/16 01:30:38;;;;;;;;;39.67;34.00;;;;;22.66;58.38;100368.44;5100435;27;45511;-53
2022/08/16 01:33:05;;;;;;;;;37.33;32.00;;;;;22.63;58.55;100369.75;5100207;27;46394;-54
2022/08/16 01:35:31;;;;;;;;;36.67;32.67;;;;;22.58;58.66;100376.91;5100086;27;45495;-54
2022/08/16 01:37:56;;;;;;;;;35.00;32.00;;;;;22.56;58.48;100373.63;5100030;27;45427;-52
2022/08/16 01:40:28;;;;;;;;;40.67;32.67;;;;;22.50;59.17;100367.25;5100368;27;45362;-54
2022/08/16 01:42:54;;;;;;;;;38.00;33.33;;;;;22.49;59.94;100368.31;5099972;27;46396;-54
2022/08/16 01:45:20;;;;;;;;;40.00;32.67;;;;;22.46;59.64;100366.09;5081776;27;45434;-53
2022/08/16 01:47:49;;;;;;;;;35.67;32.00;;;;;22.47;59.58;100361.47;5100227;27;45310;-54
2022/08/16 01:50:14;;;;;;;;;37.33;32.00;;;;;22.50;59.24;100355.56;5100201;27;45380;-54
2022/08/16 01:52:41;;;;;;;;;38.00;33.00;;;;;22.54;58.88;100362.16;5099811;27;46115;-53
2022/08/16 01:55:08;;;;;;;;;37.67;32.00;;;;;22.47;58.80;100351.47;5099779;27;45307;-54
2022/08/16 01:57:33;;;;;;;;;37.33;33.00;;;;;22.60;59.03;100367.50;5099046;27;45446;-53
2022/08/16 01:59:59;;;;;;;;;48.67;37.00;;;;;22.63;58.65;100366.22;5100087;27;45504;-53
2022/08/16 02:02:26;;;;;;;;;36.33;33.00;;;;;22.65;58.73;100374.91;5099768;27;46034;-54
2022/08/16 02:04:51;;;;;;;;;35.33;32.00;;;;;22.69;58.83;100367.16;5099676;27;45329;-53
2022/08/16 02:07:19;;;;;;;;;37.67;31.67;;;;;22.67;58.82;100370.94;5100048;27;45269;-53
2022/08/16 02:09:46;;;;;;;;;44.00;33.00;;;;;22.72;59.08;100372.09;5099857;27;45377;-53
2022/08/16 02:12:12;;;;;;;;;32.00;28.67;;;;;22.69;58.69;100367.16;5099894;27;45385;-53
2022/08/16 02:14:38;;;;;;;;;34.67;29.67;;;;;22.54;58.88;100357.56;5099635;27;45461;-53
2022/08/16 02:17:08;;;;;;;;;39.00;33.00;;;;;22.62;58.65;100372.66;5099871;27;45330;-53
2022/08/16 02:19:37;;;;;;;;;38.67;33.67;;;;;22.53;58.57;100353.22;5099978;27;45347;-53
2022/08/16 02:22:05;;;;;;;;;38.00;32.33;;;;;22.61;59.01;100366.44;5099392;27;46131;-52
2022/08/16 02:24:30;;;;;;;;;38.67;33.67;;;;;22.59;58.77;100365.03;5099562;27;45336;-53
2022/08/16 02:26:56;;;;;;;;;35.67;33.00;;;;;22.52;59.26;100367.84;5099586;27;45496;-52
2022/08/16 02:29:21;;;;;;;;;37.67;34.00;;;;;22.54;59.55;100365.72;5081805;27;45279;-55
2022/08/16 02:31:49;;;;;;;;;37.00;31.00;;;;;22.52;59.62;100364.31;5100048;27;46175;-53
2022/08/16 02:34:16;;;;;;;;;39.33;33.00;;;;;22.47;59.81;100351.47;5099807;27;45436;-54
2022/08/16 02:36:42;;;;;;;;;43.33;35.00;;;;;22.49;59.69;100351.22;5099621;27;45378;-54
2022/08/16 02:39:09;;;;;;;;;35.33;32.67;;;;;22.48;60.01;100346.88;5099202;27;45325;-55
2022/08/16 02:41:36;;;;;;;;;35.67;32.67;;;;;22.44;59.96;100332.13;5114947;27;48006;-53
2022/08/16 02:44:04;;;;;;;;;43.33;34.00;;;;;22.41;59.71;100331.53;5099360;27;45280;-52
2022/08/16 02:46:30;;;;;;;;;44.00;36.00;;;;;22.39;60.28;100317.41;5099097;27;45444;-54
2022/08/16 02:48:55;;;;;;;;;40.33;33.00;;;;;22.34;59.94;100306.44;5099290;27;45188;-54
2022/08/16 02:51:20;;;;;;;;;39.00;33.00;;;;;22.32;60.60;100313.13;5099049;27;45179;-54
2022/08/16 02:53:47;;;;;;;;;34.00;30.67;;;;;22.29;61.07;100319.88;5098823;27;45449;-53
2022/08/16 02:56:14;;;;;;;;;38.67;33.33;;;;;22.21;61.01;100322.09;5115030;27;45349;-54
2022/08/16 02:58:40;;;;;;;;;37.33;32.67;;;;;22.20;61.62;100317.72;5099225;27;45396;-52
2022/08/16 03:01:06;;;;;;;;;37.67;34.00;;;;;22.11;61.55;100307.19;5098847;27;45362;-53
2022/08/16 03:03:33;;;;;;;;;38.33;34.00;;;;;22.12;61.42;100313.44;5099022;27;45235;-53
2022/08/16 03:05:58;;;;;;;;;39.33;34.00;;;;;22.02;61.74;100289.63;5098783;27;45219;-54
2022/08/16 03:08:24;;;;;;;;;38.00;34.00;;;;;22.06;61.81;100301.66;5098687;27;45213;-53
2022/08/16 03:10:49;;;;;;;;;41.00;34.00;;;;;22.04;61.98;100300.25;5098776;27;45448;-56
2022/08/16 03:13:16;;;;;;;;;43.00;33.33;;;;;22.04;62.49;100306.50;5098700;27;45382;-55
2022/08/16 03:15:43;;;;;;;;;36.33;31.00;;;;;21.93;62.01;100296.44;5099080;27;45308;-54
2022/08/16 03:18:10;;;;;;;;;38.33;33.00;;;;;22.03;62.49;100315.66;5098975;27;45313;-54
2022/08/16 03:20:35;;;;;;;;;39.67;34.67;;;;;22.01;62.73;100309.66;5098256;27;45496;-57
2022/08/16 03:23:02;;;;;;;;;40.33;34.00;;;;;22.02;62.47;100307.78;5098447;27;45859;-54
2022/08/16 03:25:28;;;;;;;;;32.00;31.00;;;;;22.03;62.85;100312.94;5098407;27;45433;-54
2022/08/16 03:27:54;;;;;;;;;39.33;34.67;;;;;22.05;62.69;100329.81;5098958;27;45427;-53
2022/08/16 03:30:25;;;;;;;;;40.00;35.00;;;;;21.97;62.71;100318.47;5098074;27;47160;-55
2022/08/16 03:32:51;;;;;;;;;43.00;33.67;;;;;22.02;62.50;100335.69;5098457;27;45339;-54
2022/08/16 03:35:19;;;;;;;;;36.33;32.33;;;;;22.04;62.74;100333.59;5098393;27;45383;-55
2022/08/16 03:37:46;;;;;;;;;41.33;34.33;;;;;22.04;62.33;100333.59;5098295;27;45323;-55
2022/08/16 03:40:13;;;;;;;;;45.33;35.00;;;;;21.91;63.07;100317.50;5097953;27;46208;-53
2022/08/16 03:42:39;;;;;;;;;38.33;34.67;;;;;21.97;62.75;100332.03;5098221;27;45352;-54
2022/08/16 03:45:05;;;;;;;;;43.00;34.00;;;;;21.92;63.00;100330.00;5098424;27;45326;-52
2022/08/16 03:47:31;;;;;;;;;42.67;34.00;;;;;21.90;62.67;100335.63;5098272;27;45489;-55
2022/08/16 03:49:57;;;;;;;;;40.33;34.00;;;;;21.90;63.44;100342.94;5098033;27;45297;-54
2022/08/16 03:52:23;;;;;;;;;40.33;35.00;;;;;21.89;63.05;100344.81;5098021;27;45271;-54
2022/08/16 03:54:49;;;;;;;;;40.00;34.33;;;;;21.88;63.19;100356.72;5098013;27;45285;-55
2022/08/16 03:57:14;;;;;;;;;34.33;31.33;;;;;21.82;63.52;100359.50;5098181;27;45435;-53
2022/08/16 03:59:40;;;;;;;;;46.00;34.67;;;;;21.69;63.73;100347.00;5097826;27;46506;-53
2022/08/16 04:02:05;;;;;;;;;38.00;34.00;;;;;21.72;63.77;100357.38;5097997;27;45382;-55
2022/08/16 04:04:34;;;;;;;;;41.00;35.33;;;;;21.70;63.70;100353.22;5113908;27;45391;-55
2022/08/16 04:07:05;;;;;;;;;38.67;35.00;;;;;21.70;63.71;100364.91;5098119;27;45325;-55
2022/08/16 04:09:32;;;;;;;;;46.00;35.67;;;;;21.56;63.63;100337.16;5097378;27;47240;-56
2022/08/16 04:11:58;;;;;;;;;40.00;33.33;;;;;21.63;63.34;100362.28;5097656;27;45472;-55
2022/08/16 04:14:23;;;;;;;;;42.67;33.33;;;;;21.60;63.83;100360.00;5097860;27;45309;-54
2022/08/16 04:16:48;;;;;;;;;37.33;32.67;;;;;21.60;63.63;100356.50;5097946;27;45369;-55
2022/08/16 04:19:14;;;;;;;;;42.33;35.33;;;;;21.59;63.68;100346.72;5097147;27;46059;-54
2022/08/16 04:21:39;;;;;;;;;35.00;31.33;;;;;21.63;63.50;100347.91;5097517;27;45409;-54
2022/08/16 04:24:05;;;;;;;;;39.00;34.33;;;;;21.66;63.68;100358.31;5097699;27;45432;-55
2022/08/16 04:26:31;;;;;;;;;36.00;32.00;;;;;21.67;63.66;100365.34;5097878;27;45306;-54
2022/08/16 04:28:58;;;;;;;;;43.33;33.00;;;;;21.67;63.59;100360.75;5097299;27;45479;-54
2022/08/16 04:31:23;;;;;;;;;37.67;32.00;;;;;21.70;63.77;100358.63;5097476;27;45334;-53
2022/08/16 04:33:48;;;;;;;;;35.00;31.00;;;;;21.72;63.65;100353.84;5097586;27;45402;-54
2022/08/16 04:36:14;;;;;;;;;33.33;30.33;;;;;21.68;63.31;100354.28;5079264;27;45528;-53
2022/08/16 04:38:39;;;;;;;;;38.33;31.00;;;;;21.66;63.35;100344.75;5097632;27;45257;-55
2022/08/16 04:41:05;;;;;;;;;42.33;34.00;;;;;21.70;63.25;100350.53;5097122;27;45259;-54
2022/08/16 04:43:32;;;;;;;;;42.33;32.00;;;;;21.72;63.33;100354.66;5097514;27;45222;-55
2022/08/16 04:45:58;;;;;;;;;40.00;32.33;;;;;21.72;63.59;100357.38;5097808;27;45424;-55
2022/08/16 04:48:24;;;;;;;;;35.67;31.00;;;;;21.72;63.51;100357.38;5097338;27;45459;-55
2022/08/16 04:50:49;;;;;;;;;31.00;26.67;;;;;21.73;63.70;100355.47;5097372;27;45428;-53
2022/08/16 04:53:15;;;;;;;;;40.00;33.00;;;;;21.74;63.22;100357.94;5097313;27;45323;-53
2022/08/16 04:55:40;;;;;;;;;31.00;31.00;;;;;21.74;63.00;100359.84;5097289;27;45471;-53
2022/08/16 04:58:07;;;;;;;;;34.00;31.00;;;;;21.74;63.70;100362.53;5097133;27;46347;-53
2022/08/16 05:00:34;;;;;;;;;31.33;30.00;;;;;21.65;63.86;100352.03;5096730;27;45420;-53
2022/08/16 05:03:08;;;;;;;;;33.00;27.00;;;;;21.73;63.57;100360.91;5096997;27;45357;-53
2022/08/16 05:05:35;;;;;;;;;36.67;32.00;;;;;21.73;63.46;100358.19;5097091;27;45641;-54
2022/08/16 05:08:01;;;;;;;;;38.00;33.00;;;;;21.74;63.95;100360.66;5096911;27;45973;-53
2022/08/16 05:10:28;;;;;;;;;41.00;31.00;;;;;21.74;63.94;100367.97;5097050;27;45168;-55
2022/08/16 05:12:53;;;;;;;;;40.33;33.67;;;;;21.73;63.59;100372.56;5113020;27;45324;-55
2022/08/16 05:15:19;;;;;;;;;36.00;31.00;;;;;21.73;64.26;100383.38;5097312;27;45380;-55
2022/08/16 05:17:44;;;;;;;;;42.00;33.00;;;;;21.72;64.02;100375.50;5096769;27;46093;-55
2022/08/16 05:20:10;;;;;;;;;38.33;32.00;;;;;21.63;64.17;100362.28;5096873;27;45324;-54
2022/08/16 05:22:37;;;;;;;;;33.00;29.67;;;;;21.75;63.68;100375.88;5097137;27;45325;-53
2022/08/16 05:25:09;;;;;;;;;40.33;34.33;;;;;21.73;63.87;100385.25;5097102;27;45323;-54
2022/08/16 05:27:36;;;;;;;;;33.00;30.33;;;;;21.81;64.09;100407.44;5096635;27;47105;-55
2022/08/16 05:30:03;;;;;;;;;35.67;30.33;;;;;21.83;63.91;100407.22;5096723;27;45272;-52
2022/08/16 05:32:29;;;;;;;;;29.00;24.00;;;;;21.85;63.74;100410.50;5098646;27;45512;-55
2022/08/16 05:34:54;;;;;;;;;33.33;28.00;;;;;21.85;63.01;100405.91;5092068;27;45420;-54
2022/08/16 05:37:22;;;;;;;;;33.33;28.00;;;;;21.77;63.69;100395.41;5099494;27;45472;-55
2022/08/16 05:39:48;;;;;;;;;37.33;31.33;;;;;21.84;64.05;100406.16;5100007;27;46000;-53
2022/08/16 05:42:13;;;;;;;;;38.00;33.33;;;;;21.77;63.76;100400.00;5100394;27;45271;-54
2022/08/16 05:44:38;;;;;;;;;34.67;31.67;;;;;21.74;64.01;100397.72;5100508;27;45320;-54
2022/08/16 05:47:04;;;;;;;;;28.33;27.67;;;;;21.73;63.87;100396.09;5100184;27;47024;-52
2022/08/16 05:49:30;;;;;;;;;34.33;30.33;;;;;21.77;63.96;100406.22;5100080;27;45464;-55
2022/08/16 05:51:56;;;;;;;;;35.00;31.00;;;;;21.77;64.11;100408.13;5100113;27;45348;-53
2022/08/16 05:54:22;;;;;;;;;36.67;30.33;;;;;21.75;64.10;100408.34;5100427;27;45391;-53
2022/08/16 05:56:48;;;;;;;;;35.67;29.67;;;;;21.85;63.99;100418.63;5099860;27;46077;-52
2022/08/16 05:59:16;;;;;;;;;39.00;34.00;;;;;21.90;63.05;100410.66;5099495;27;45311;-53
2022/08/16 06:01:49;;;;;;;;;34.67;30.00;;;;;21.97;64.10;100405.16;5100038;27;45353;-51
2022/08/16 06:04:15;;;;;;;;;34.00;30.00;;;;;22.04;63.76;100416.72;5100233;27;45204;-54
2022/08/16 06:06:43;;;;;;;;;36.33;31.00;;;;;22.06;63.45;100417.31;5099756;27;46359;-52
2022/08/16 06:09:09;;;;;;;;;35.00;31.00;;;;;22.11;63.42;100414.72;5099759;27;45318;-53
2022/08/16 06:11:35;;;;;;;;;28.00;27.33;;;;;22.12;63.44;100438.94;5099695;27;45530;-53
2022/08/16 06:14:01;;;;;;;;;35.33;31.00;;;;;22.16;63.50;100432.00;5099902;27;45390;-53
2022/08/16 06:16:27;;;;;;;;;40.00;31.33;;;;;22.18;63.18;100426.34;5099723;27;46109;-55
2022/08/16 06:18:52;;;;;;;;;33.33;31.67;;;;;22.27;63.05;100438.50;5099683;27;45231;-52
2022/08/16 06:21:17;;;;;;;;;35.00;30.33;;;;;22.30;62.83;100440.75;5099728;27;45246;-55
2022/08/16 06:23:43;;;;;;;;;35.00;33.00;;;;;22.40;62.86;100434.75;5099852;27;45331;-55
2022/08/16 06:26:08;;;;;;;;;40.33;32.67;;;;;22.57;62.44;100435.72;5099170;27;46195;-52
2022/08/16 06:28:34;;;;;;;;;35.33;31.67;;;;;22.72;61.80;100429.88;5099442;27;45199;-55
2022/08/16 06:31:00;;;;;;;;;37.00;31.00;;;;;22.75;61.57;100433.97;5099526;27;45320;-54
2022/08/16 06:33:25;;;;;;;;;37.00;30.33;;;;;22.69;61.77;100422.19;5099776;27;45196;-52
2022/08/16 06:35:53;;;;;;;;;37.67;31.67;;;;;22.65;62.19;100434.56;5098941;27;46554;-56
2022/08/16 06:38:18;;;;;;;;;33.33;29.67;;;;;22.56;61.93;100434.09;5099294;27;45446;-55
2022/08/16 06:40:43;;;;;;;;;33.25;28.75;;;;;22.50;61.95;100429.59;5099228;27;45390;-55
2022/08/16 06:43:09;;;;;;;;;33.67;30.00;;;;;22.47;62.26;100430.06;5099179;27;45401;-55
2022/08/16 06:45:39;;;;;;;;;34.00;30.33;;;;;22.43;62.53;100409.91;5099210;27;45630;-55
2022/08/16 06:48:05;;;;;;;;;30.25;30.25;;;;;22.49;62.23;100413.56;5099086;27;45508;-55
2022/08/16 06:50:31;;;;;;;;;31.67;30.00;;;;;22.46;61.65;100425.72;5099206;27;45302;-55
2022/08/16 06:52:57;;;;;;;;;32.67;31.00;;;;;22.36;62.22;100428.16;5099390;27;45501;-56
2022/08/16 06:55:22;;;;;;;;;33.33;29.00;;;;;22.37;62.05;100435.22;5098691;27;46288;-55
2022/08/16 06:57:50;;;;;;;;;31.33;30.00;;;;;22.44;62.28;100430.53;5099053;27;45411;-54
2022/08/16 07:00:16;;;;;;;;;28.33;27.67;;;;;22.47;61.64;100435.50;5098863;27;45463;-51
2022/08/16 07:02:43;;;;;;;;;38.00;31.67;;;;;22.52;61.78;100430.19;5099291;27;45345;-53
2022/08/16 07:05:10;;;;;;;;;33.33;27.33;;;;;22.54;61.96;100436.19;5098930;27;45350;-54
2022/08/16 07:07:37;;;;;;;;;30.00;27.67;;;;;22.55;61.93;100431.63;5098931;27;45336;-55
2022/08/16 07:10:04;;;;;;;;;29.33;26.67;;;;;22.54;61.75;100433.47;5099010;27;45402;-54
2022/08/16 07:12:30;;;;;;;;;28.67;27.00;;;;;22.57;61.87;100443.03;5098962;27;45405;-56
2022/08/16 07:14:56;;;;;;;;;36.33;29.33;;;;;22.61;61.78;100439.63;5098702;27;46164;-54
2022/08/16 07:17:23;;;;;;;;;35.25;29.75;;;;;22.61;61.65;100442.34;5098804;27;45326;-54
2022/08/16 07:19:49;;;;;;;;;30.00;30.00;;;;;22.55;61.64;100434.31;5098318;27;45231;-55
2022/08/16 07:22:16;;;;;;;;;35.50;27.25;;;;;22.61;61.72;100439.63;5098705;27;45330;-54
2022/08/16 07:24:43;;;;;;;;;36.67;28.00;;;;;22.62;61.75;100438.56;5098375;27;46170;-55
2022/08/16 07:27:09;;;;;;;;;24.33;22.33;;;;;22.63;61.48;100440.22;5098019;27;45406;-54
2022/08/16 07:29:35;;;;;;;;;30.67;29.67;;;;;22.64;61.46;100447.31;5098561;27;45297;-52
2022/08/16 07:32:00;;;;;;;;;29.00;28.33;;;;;22.53;61.51;100442.69;5098491;27;45408;-53
2022/08/16 07:34:26;;;;;;;;;29.00;25.67;;;;;22.65;61.45;100448.13;5098370;27;47297;-53
2022/08/16 07:36:51;;;;;;;;;28.00;24.00;;;;;22.71;61.34;100452.59;5097905;27;45348;-55
2022/08/16 07:39:17;;;;;;;;;29.50;26.25;;;;;22.82;61.13;100454.50;5098056;27;45394;-52
2022/08/16 07:41:43;;;;;;;;;26.25;25.75;;;;;22.90;60.89;100461.50;5098427;27;45299;-54
2022/08/16 07:44:09;;;;;;;;;26.50;25.75;;;;;22.95;60.44;100453.50;5097742;27;46101;-55
2022/08/16 07:46:34;;;;;;;;;27.00;27.00;;;;;22.95;60.29;100456.19;5097883;27;45221;-54
2022/08/16 07:49:00;;;;;;;;;31.00;26.50;;;;;22.88;60.41;100448.16;5097844;27;45373;-54
2022/08/16 07:51:26;;;;;;;;;32.00;28.00;;;;;22.58;60.94;100407.56;5097923;27;45236;-54
2022/08/16 07:53:51;;;;;;;;;30.75;26.00;;;;;23.01;60.32;100455.28;5097491;27;46289;-52
2022/08/16 07:56:17;;;;;;;;;27.25;26.00;;;;;23.08;60.02;100455.97;5097112;27;45268;-55
2022/08/16 07:58:44;;;;;;;;;32.00;28.33;;;;;23.12;59.97;100459.84;5097988;27;45479;-54
2022/08/16 08:01:10;;;;;;;;;29.25;26.50;;;;;23.23;59.57;100452.78;5097939;27;45537;-55
2022/08/16 08:03:36;;;;;;;;;36.00;30.33;;;;;23.28;59.61;100460.22;5097646;27;46017;-54
2022/08/16 08:06:02;;;;;;;;;28.00;27.00;;;;;23.42;59.23;100450.75;5097577;27;45362;-52
2022/08/16 08:08:28;;;;;;;;;32.00;24.25;;;;;23.76;58.41;100450.94;5097762;27;45331;-53
2022/08/16 08:10:54;;;;;;;;;34.50;27.00;;;;;24.24;57.36;100450.53;5097769;27;45272;-55
2022/08/16 08:13:20;;;;;;;;;34.25;29.50;;;;;24.62;56.25;100436.25;5097354;27;46241;-52
2022/08/16 08:15:46;;;;;;;;;26.25;26.25;;;;;25.00;55.68;100447.47;5097504;27;45229;-53
2022/08/16 08:18:12;;;;;;;;;31.00;25.00;;;;;25.20;54.45;100444.22;5097533;27;45380;-54
2022/08/16 08:20:40;;;;;;;;;28.50;27.50;;;;;25.34;54.21;100445.53;5097536;27;45291;-54
2022/08/16 08:23:07;;;;;;;;;30.50;29.50;;;;;25.43;54.32;100444.00;5097203;27;45463;-54
2022/08/16 08:25:32;;;;;;;;;21.60;21.60;;;;;25.39;54.04;100440.16;5097300;27;45343;-55
2022/08/16 08:27:58;;;;;;;;;28.00;24.50;;;;;25.28;54.48;100450.09;5097369;27;45857;-53
2022/08/16 08:30:23;;;;;;;;;27.25;22.00;;;;;25.21;54.06;100449.44;5097704;27;45310;-54
2022/08/16 08:32:48;;;;;;;;;27.50;23.00;;;;;25.20;54.55;100453.25;5097110;27;47283;-55
2022/08/16 08:35:14;;;;;;;;;23.00;21.50;;;;;25.30;54.07;100466.16;5097149;27;45350;-52
2022/08/16 08:37:40;;;;;;;;;26.25;23.00;;;;;25.42;53.33;100461.44;5097209;27;45291;-54
2022/08/16 08:40:09;;;;;;;;;27.75;22.25;;;;;25.61;53.29;100462.75;5097450;27;45450;-54
2022/08/16 08:42:34;;;;;;;;;31.00;25.75;;;;;25.86;52.12;100459.56;5097178;27;45778;-54
2022/08/16 08:45:02;;;;;;;;;27.25;21.00;;;;;26.23;51.14;100458.03;5097134;27;45365;-54
2022/08/16 08:47:27;;;;;;;;;25.40;23.20;;;;;26.92;50.25;100468.22;5096948;27;45373;-55
2022/08/16 08:49:53;;;;;;;;;20.75;16.50;;;;;27.93;48.49;100465.25;5097633;27;45428;-53
2022/08/16 08:52:18;;;;;;;;;19.00;18.50;;;;;28.46;45.40;100457.75;5112578;27;46314;-53
2022/08/16 08:54:44;;;;;;;;;19.50;19.00;;;;;28.52;45.15;100455.84;5097025;27;45348;-53
2022/08/16 08:57:09;;;;;;;;;24.50;19.75;;;;;28.56;45.43;100465.13;5097076;27;45308;-55
2022/08/16 08:59:34;;;;;;;;;22.75;19.00;;;;;28.67;45.37;100463.22;5097023;27;45172;-54
2022/08/16 09:02:00;;;;;;;;;23.50;20.75;;;;;28.81;45.17;100462.41;5096825;27;45960;-53
2022/08/16 09:04:27;;;;;;;;;24.50;18.50;;;;;28.51;44.79;100457.75;5096920;27;45405;-54
2022/08/16 09:06:53;;;;;;;;;15.80;15.40;;;;;28.00;46.60;100460.38;5099858;27;45365;-53
2022/08/16 09:09:18;;;;;;;;;16.40;15.00;;;;;27.63;46.22;100462.38;5116961;27;45357;-53
2022/08/16 09:11:45;;;;;;;;;23.25;18.75;;;;;27.73;46.26;100466.03;5100499;27;46290;-55
2022/08/16 09:14:11;;;;;;;;;20.00;18.00;;;;;28.68;44.83;100471.16;5100724;27;45378;-54
2022/08/16 09:16:37;;;;;;;;;26.00;20.25;;;;;29.49;44.00;100474.91;5100812;27;45641;-53
2022/08/16 09:19:02;;;;;;;;;20.80;18.20;;;;;29.48;42.58;100476.81;5100863;27;45326;-53
2022/08/16 09:21:28;;;;;;;;;23.75;18.00;;;;;29.28;43.52;100476.88;5100751;27;46448;-55
2022/08/16 09:23:53;;;;;;;;;17.00;17.00;;;;;29.56;43.92;100473.53;5100748;27;45458;-53
2022/08/16 09:26:20;;;;;;;;;21.50;18.75;;;;;29.18;43.87;100471.44;5100703;27;45436;-53
2022/08/16 09:28:45;;;;;;;;;21.20;18.40;;;;;28.94;44.41;100480.19;5100774;27;45242;-51
2022/08/16 09:31:13;;;;;;;;;17.75;17.25;;;;;28.81;44.85;100489.78;5102297;27;47080;-54
2022/08/16 09:33:40;;;;;;;;;18.40;16.00;;;;;28.47;45.12;100492.22;5106212;27;45351;-53
2022/08/16 09:36:07;;;;;;;;;20.80;17.60;;;;;28.21;45.50;100493.25;5104769;27;45358;-54
2022/08/16 09:38:34;;;;;;;;;20.40;19.20;;;;;28.19;45.70;100487.22;5104413;27;45338;-54
2022/08/16 09:41:02;;;;;;;;;19.60;16.20;;;;;29.13;44.28;100485.97;5103103;27;45350;-55
2022/08/16 09:43:28;;;;;;;;;20.00;18.20;;;;;29.15;42.98;100482.94;5100120;27;45481;-53
2022/08/16 09:45:55;;;;;;;;;18.40;15.80;;;;;29.07;43.23;100489.78;5100368;27;45322;-55
2022/08/16 09:48:20;;;;;;;;;18.50;16.75;;;;;29.49;43.23;100483.94;5100386;27;45454;-52
2022/08/16 09:50:45;;;;;;;;;18.75;16.50;;;;;29.46;42.22;100483.69;5100070;27;46915;-53
2022/08/16 09:53:17;;;;;;;;;17.00;15.75;;;;;28.92;44.04;100485.13;5100268;27;45563;-54
2022/08/16 09:55:45;;;;;;;;;20.00;18.40;;;;;28.48;44.46;100480.19;5100097;27;45389;-54
2022/08/16 09:58:11;;;;;;;;;21.40;18.20;;;;;28.52;44.29;100472.25;5100271;27;45325;-54
2022/08/16 10:00:37;;;;;;;;;19.25;16.75;;;;;28.90;43.94;100476.34;5099657;27;47088;-53
2022/08/16 10:03:04;;;;;;;;;18.50;15.75;;;;;28.68;44.41;100484.84;5099901;27;45381;-53
2022/08/16 10:05:31;;;;;;;;;15.00;13.80;;;;;28.20;44.71;100488.88;5100187;27;45256;-54
2022/08/16 10:07:57;;;;;;;;;15.00;14.00;;;;;28.02;45.37;100493.75;5116150;27;45236;-54
2022/08/16 10:10:23;;;;;;;;;19.50;15.00;;;;;28.41;45.12;100487.84;5099712;27;46106;-53
2022/08/16 10:15:34;;;;;;;;;18.40;18.40;;;;;29.16;43.35;100488.16;5099854;27;45409;-54
2022/08/16 10:18:01;;;;;;;;;16.80;14.80;;;;;29.16;43.34;100484.56;5099116;27;45414;-53
2022/08/16 10:20:28;;;;;;;;;16.60;15.00;;;;;29.20;42.87;100474.69;5099661;27;45332;-53
2022/08/16 10:22:53;;;;;;;;;20.80;14.80;;;;;29.98;41.06;100488.72;5099306;27;45373;-54
2022/08/16 10:25:20;;;;;;;;;21.25;15.50;;;;;30.34;41.15;100488.56;5099789;27;45349;-53
2022/08/16 10:27:46;;;;;;;;;16.20;16.20;;;;;30.27;41.02;100493.53;5099793;27;45325;-54
2022/08/16 10:30:12;;;;;;;;;13.40;13.40;;;;;30.06;41.49;100490.06;5099317;27;45664;-54
2022/08/16 10:32:38;;;;;;;;;16.40;12.20;;;;;29.64;42.01;100493.25;5099750;27;45266;-53
2022/08/16 10:35:03;;;;;;;;;12.00;12.00;;;;;29.23;42.94;100501.53;5099465;27;45523;-54
2022/08/16 10:37:29;;;;;;;;;18.50;16.50;;;;;29.11;42.40;100492.78;5099385;27;45409;-54
2022/08/16 10:39:55;;;;;;;;;21.25;15.75;;;;;28.82;43.02;100490.59;5099215;27;45888;-53
2022/08/16 10:42:21;;;;;;;;;17.50;14.25;;;;;28.68;43.46;100484.84;5099117;27;45431;-53
2022/08/16 10:44:47;;;;;;;;;14.60;13.60;;;;;28.63;43.48;100482.13;5099240;27;45408;-53
2022/08/16 10:47:12;;;;;;;;;18.50;15.50;;;;;28.55;43.45;100488.13;5099522;27;45446;-52
2022/08/16 10:49:38;;;;;;;;;19.25;14.50;;;;;28.53;43.57;100484.84;5099063;27;46523;-53
2022/08/16 10:52:03;;;;;;;;;20.00;18.50;;;;;28.65;43.15;100474.44;5099324;27;45440;-54
2022/08/16 10:54:29;;;;;;;;;17.00;16.50;;;;;28.71;43.24;100478.03;5099066;27;45417;-52
2022/08/16 10:56:56;;;;;;;;;17.00;17.00;;;;;28.84;43.09;100486.50;5099219;27;45432;-56
2022/08/16 10:59:21;;;;;;;;;12.80;12.80;;;;;28.98;42.12;100486.78;5098784;27;46366;-54
2022/08/16 11:01:47;;;;;;;;;18.50;16.00;;;;;28.86;43.08;100488.94;5099026;27;45359;-55
2022/08/16 11:04:13;;;;;;;;;19.50;16.50;;;;;28.67;43.52;100493.34;5099590;27;45523;-55
2022/08/16 11:06:39;;;;;;;;;18.40;15.40;;;;;28.29;43.96;100504.47;5099182;27;45424;-54
2022/08/16 11:09:04;;;;;;;;;19.00;17.60;;;;;28.18;43.97;100502.78;5098800;27;46123;-55